Time;durP1;ratioP1;P1;durP2;ratioP2;P2;SDS_P1;SDS_P2;PMS_P1;PMS_P2;Temp;Humidity;BMP_temperature;BMP_pressure;BME280_temperature;BME280_humidity;BME280_pressure;Samples;Min_cycle;Max_cycle;Signal;HPM_P1;HPM_P2
2022/08/30 00:02:37;;;;;;;;;11.75;10.25;;;;;25.91;46.02;99214.66;4987438;28;45454;-62
2022/08/30 00:05:03;;;;;;;;;16.25;15.50;;;;;25.90;46.45;99218.38;5013941;28;45595;-63
2022/08/30 00:07:29;;;;;;;;;15.75;15.75;;;;;25.88;46.34;99216.81;5010654;28;45454;-62
2022/08/30 00:09:54;;;;;;;;;14.00;13.75;;;;;25.84;46.38;99208.19;5013374;28;45639;-63
2022/08/30 00:12:20;;;;;;;;;16.25;13.75;;;;;25.82;46.13;99210.19;5011412;28;45488;-62
2022/08/30 00:14:46;;;;;;;;;14.50;14.50;;;;;25.80;46.40;99208.66;5003493;28;45500;-63
2022/08/30 00:17:12;;;;;;;;;16.25;14.50;;;;;25.76;46.23;99204.56;5011895;28;45445;-63
2022/08/30 00:19:38;;;;;;;;;18.25;17.00;;;;;25.72;46.52;99206.72;5009808;28;45548;-63
2022/08/30 00:22:05;;;;;;;;;14.00;12.50;;;;;25.68;46.37;99195.38;5008006;28;45408;-63
2022/08/30 00:24:30;;;;;;;;;16.50;16.25;;;;;25.65;46.91;99201.09;5012936;28;45328;-62
2022/08/30 00:26:55;;;;;;;;;15.50;15.50;;;;;25.62;47.06;99205.97;5004611;28;45534;-61
2022/08/30 00:29:21;;;;;;;;;17.50;16.75;;;;;25.58;47.16;99196.44;5005705;28;46290;-62
2022/08/30 00:31:46;;;;;;;;;19.25;16.75;;;;;25.54;47.24;99195.06;5012498;28;45478;-62
2022/08/30 00:34:12;;;;;;;;;16.50;16.50;;;;;25.52;47.45;99194.34;5011346;28;45426;-62
2022/08/30 00:36:38;;;;;;;;;17.50;16.75;;;;;25.49;47.45;99195.50;5011930;28;45552;-62
2022/08/30 00:39:05;;;;;;;;;16.25;15.25;;;;;25.46;47.32;99195.84;5007342;28;46476;-62
2022/08/30 00:41:30;;;;;;;;;17.25;17.25;;;;;25.44;47.37;99197.84;5006748;28;45419;-62
2022/08/30 00:43:56;;;;;;;;;17.25;16.50;;;;;25.42;47.10;99204.41;5000951;28;45438;-62
2022/08/30 00:46:21;;;;;;;;;20.25;16.50;;;;;25.36;47.60;99203.16;5011952;28;45473;-61
2022/08/30 00:48:49;;;;;;;;;17.25;15.00;;;;;25.33;47.51;99198.03;5001619;28;45830;-62
2022/08/30 00:51:16;;;;;;;;;19.00;15.00;;;;;25.30;47.59;99191.09;5009097;28;45200;-62
2022/08/30 00:53:46;;;;;;;;;15.75;13.75;;;;;25.28;47.71;99189.59;5006998;28;45428;-65
2022/08/30 00:56:12;;;;;;;;;15.00;15.00;;;;;25.24;47.77;99189.03;5006577;28;45493;-61
2022/08/30 00:58:47;;;;;;;;;16.50;16.50;;;;;25.23;47.62;99184.63;5010295;28;46767;-61
2022/08/30 01:01:13;;;;;;;;;18.25;17.00;;;;;25.21;48.01;99186.63;5007662;28;45543;-61
2022/08/30 01:03:40;;;;;;;;;15.00;15.00;;;;;25.20;47.77;99190.34;5004617;28;45418;-62
2022/08/30 01:06:06;;;;;;;;;17.00;17.00;;;;;25.18;47.25;99195.03;5010107;28;45533;-62
2022/08/30 01:08:32;;;;;;;;;14.50;14.50;;;;;25.14;48.52;99204.41;5005248;28;46369;-62
2022/08/30 01:10:59;;;;;;;;;15.25;14.00;;;;;25.04;48.33;99198.25;5006094;28;45741;-61
2022/08/30 01:13:25;;;;;;;;;14.75;12.50;;;;;24.96;48.05;99198.16;5007122;28;45387;-62
2022/08/30 01:15:52;;;;;;;;;12.00;12.00;;;;;24.91;48.41;99195.88;5007147;28;45410;-65
2022/08/30 01:18:18;;;;;;;;;12.00;12.00;;;;;24.82;48.46;99194.06;5008303;28;45602;-63
2022/08/30 01:21:07;;;;;;;;;16.50;14.00;;;;;24.77;48.56;99198.25;5010366;28;45497;-62
2022/08/30 01:23:35;;;;;;;;;13.00;11.00;;;;;24.64;49.30;99194.00;5012325;28;45437;-62
2022/08/30 01:26:02;;;;;;;;;16.00;13.50;;;;;24.55;49.16;99200.31;5008666;28;45312;-62
2022/08/30 01:28:29;;;;;;;;;16.25;14.50;;;;;24.49;49.26;99205.44;5008098;28;45480;-63
2022/08/30 01:30:55;;;;;;;;;14.50;14.00;;;;;24.42;49.17;99202.50;5006717;28;45702;-63
2022/08/30 01:33:21;;;;;;;;;14.25;13.75;;;;;24.38;49.71;99198.38;4986315;28;45535;-63
2022/08/30 01:35:55;;;;;;;;;15.50;13.75;;;;;24.38;49.52;99197.53;5009688;28;45542;-62
2022/08/30 01:38:25;;;;;;;;;16.50;12.75;;;;;24.39;49.46;99200.09;5008609;28;46333;-62
2022/08/30 01:40:58;;;;;;;;;13.75;13.00;;;;;24.41;50.01;99206.19;5001532;28;45430;-63
2022/08/30 01:43:24;;;;;;;;;16.00;13.50;;;;;24.44;49.72;99210.44;5009700;28;45419;-63
2022/08/30 01:45:49;;;;;;;;;20.75;19.00;;;;;24.41;49.90;99206.19;5016248;28;45406;-63
2022/08/30 01:48:15;;;;;;;;;15.25;13.00;;;;;24.39;49.86;99202.78;5003871;28;45535;-63
2022/08/30 01:50:41;;;;;;;;;13.00;13.00;;;;;24.40;50.30;99201.78;5015407;28;45511;-62
2022/08/30 01:53:07;;;;;;;;;12.50;12.50;;;;;24.40;50.26;99192.84;5016955;28;45505;-62
2022/08/30 01:55:33;;;;;;;;;17.00;15.50;;;;;24.38;50.52;99182.22;5003824;28;45850;-62
2022/08/30 01:57:59;;;;;;;;;15.00;15.00;;;;;24.35;50.95;99182.50;5006272;28;46191;-63
2022/08/30 02:00:25;;;;;;;;;16.75;16.75;;;;;24.34;50.95;99186.19;5003383;28;45383;-61
2022/08/30 02:02:51;;;;;;;;;15.00;11.50;;;;;24.31;51.54;99181.09;5006970;28;45384;-61
2022/08/30 02:05:17;;;;;;;;;16.00;14.25;;;;;24.28;51.82;99182.25;5007836;28;45390;-61
2022/08/30 02:07:42;;;;;;;;;16.00;14.00;;;;;24.25;51.69;99176.31;5005734;28;45593;-61
2022/08/30 02:10:08;;;;;;;;;15.00;13.75;;;;;24.20;51.96;99179.41;5011168;28;45581;-62
2022/08/30 02:12:34;;;;;;;;;13.50;13.50;;;;;24.17;51.78;99171.59;5006925;28;45514;-62
2022/08/30 02:15:00;;;;;;;;;12.75;12.50;;;;;24.11;51.63;99172.22;5012928;28;45442;-60
2022/08/30 02:17:25;;;;;;;;;14.75;13.00;;;;;24.05;51.93;99156.63;5015583;28;45451;-63
2022/08/30 02:19:51;;;;;;;;;13.75;13.75;;;;;24.04;52.26;99157.63;5013092;28;45453;-63
2022/08/30 02:22:16;;;;;;;;;16.00;14.75;;;;;24.03;52.60;99166.69;5016869;28;45928;-62
2022/08/30 02:24:42;;;;;;;;;17.25;14.00;;;;;24.03;52.60;99180.16;5012854;28;45442;-63
2022/08/30 02:27:07;;;;;;;;;16.75;15.75;;;;;24.04;53.24;99178.31;5005679;28;45454;-61
2022/08/30 02:29:34;;;;;;;;;19.50;16.25;;;;;24.00;52.92;99175.91;5013769;28;45402;-65
2022/08/30 02:32:00;;;;;;;;;13.00;13.00;;;;;23.98;52.22;99171.66;4988229;28;45358;-61
2022/08/30 02:34:27;;;;;;;;;23.33;22.00;;;;;24.00;52.31;99169.66;4996872;28;45611;-67
2022/08/30 02:36:52;;;;;;;;;18.33;17.00;;;;;24.04;51.99;99171.09;5012971;28;46764;-59
2022/08/30 02:39:19;;;;;;;;;19.25;18.25;;;;;24.10;52.76;99175.06;5010005;28;45423;-67
2022/08/30 02:41:45;;;;;;;;;19.00;18.00;;;;;24.12;53.38;99175.75;5010502;28;45521;-61
2022/08/30 02:44:10;;;;;;;;;19.25;18.25;;;;;24.11;52.64;99174.91;5011733;28;45399;-61
2022/08/30 02:46:36;;;;;;;;;18.50;18.00;;;;;24.11;52.21;99171.38;5011836;28;45481;-62
2022/08/30 02:49:02;;;;;;;;;18.50;16.25;;;;;24.10;52.20;99172.34;4986376;28;45493;-62
2022/08/30 02:51:28;;;;;;;;;18.75;18.75;;;;;24.09;52.24;99158.03;5010080;28;45643;-63
2022/08/30 02:53:53;;;;;;;;;16.75;16.00;;;;;24.08;51.91;99159.03;5005625;28;45457;-62
2022/08/30 02:56:18;;;;;;;;;21.50;18.50;;;;;24.04;52.43;99151.38;5014495;28;45405;-64
2022/08/30 02:58:44;;;;;;;;;20.50;17.25;;;;;24.02;52.28;99146.13;5012509;28;45391;-62
2022/08/30 03:01:12;;;;;;;;;13.50;13.50;;;;;24.01;52.57;99139.91;5013176;28;45427;-66
2022/08/30 03:03:38;;;;;;;;;15.50;12.75;;;;;24.02;52.54;99141.59;5014951;28;45421;-63
2022/08/30 03:06:04;;;;;;;;;20.00;17.50;;;;;24.02;52.65;99141.59;5015185;28;45566;-64
2022/08/30 03:08:31;;;;;;;;;16.75;16.50;;;;;24.04;52.83;99143.31;5010395;28;45430;-62
2022/08/30 03:10:56;;;;;;;;;16.50;16.25;;;;;24.02;53.12;99143.44;5015379;28;45490;-62
2022/08/30 03:13:23;;;;;;;;;16.25;15.25;;;;;24.01;52.96;99131.81;5012743;28;45501;-62
2022/08/30 03:15:49;;;;;;;;;15.50;15.50;;;;;24.01;52.85;99123.75;5009323;28;46546;-62
2022/08/30 03:18:15;;;;;;;;;18.75;16.75;;;;;24.01;53.21;99118.34;5011633;28;45312;-62
2022/08/30 03:20:41;;;;;;;;;13.00;13.00;;;;;24.02;52.87;99122.75;5008607;28;45324;-64
2022/08/30 03:23:06;;;;;;;;;17.75;17.75;;;;;24.01;53.16;99125.59;4998465;28;45392;-61
2022/08/30 03:25:32;;;;;;;;;21.67;19.67;;;;;24.00;53.28;99122.03;5009328;28;46408;-60
2022/08/30 03:27:58;;;;;;;;;28.67;28.00;;;;;24.04;52.84;99127.13;5007524;28;45335;-61
2022/08/30 03:30:24;;;;;;;;;38.00;33.00;;;;;24.05;52.55;99132.38;5013429;28;45575;-60
2022/08/30 03:32:50;;;;;;;;;36.33;32.67;;;;;24.05;53.02;99127.00;5016070;28;45466;-60
2022/08/30 03:35:17;;;;;;;;;22.33;22.33;;;;;24.05;52.93;99132.38;5012595;28;45457;-60
2022/08/30 03:37:44;;;;;;;;;18.50;17.50;;;;;24.02;53.09;99133.53;5008487;28;45446;-60
2022/08/30 03:40:10;;;;;;;;;18.25;18.00;;;;;24.00;52.55;99129.28;5012807;28;45383;-60
2022/08/30 03:42:36;;;;;;;;;21.00;18.00;;;;;23.98;52.86;99131.25;5006309;28;45356;-61
2022/08/30 03:45:03;;;;;;;;;16.75;16.75;;;;;23.97;53.14;99134.94;5012438;28;45756;-60
2022/08/30 03:47:29;;;;;;;;;17.00;16.00;;;;;23.93;52.69;99134.41;5013490;28;45480;-60
2022/08/30 03:49:56;;;;;;;;;18.75;17.50;;;;;23.92;52.65;99135.41;5002681;28;45626;-60
2022/08/30 03:52:22;;;;;;;;;17.00;17.00;;;;;23.92;53.06;99148.88;5014800;28;45572;-60
2022/08/30 03:54:47;;;;;;;;;19.33;19.33;;;;;23.90;53.17;99150.84;5002305;28;45661;-62
2022/08/30 03:57:13;;;;;;;;;15.00;15.00;;;;;23.89;53.12;99153.69;4991973;28;45491;-62
2022/08/30 03:59:40;;;;;;;;;831.50;651.50;;;;;23.89;53.36;99159.06;4999416;28;45415;-62
2022/08/30 04:02:05;;;;;;;;;11.33;9.67;;;;;23.92;53.17;99159.63;5014399;28;45358;-59
2022/08/30 04:04:32;;;;;;;;;16.50;16.50;;;;;23.95;52.82;99143.19;4993117;28;45430;-64
2022/08/30 04:06:57;;;;;;;;;18.75;18.00;;;;;23.95;53.20;99153.13;5009291;28;45345;-64
2022/08/30 04:09:23;;;;;;;;;22.00;21.00;;;;;23.93;53.38;99157.78;5009987;28;45458;-63
2022/08/30 04:11:49;;;;;;;;;19.33;19.33;;;;;23.91;53.35;99162.47;4992043;28;45462;-64
2022/08/30 04:14:15;;;;;;;;;19.67;19.00;;;;;23.87;53.39;99170.00;5006292;28;45463;-65
2022/08/30 04:16:41;;;;;;;;;17.00;16.50;;;;;23.83;53.32;99163.19;5011691;28;45610;-64
2022/08/30 04:19:06;;;;;;;;;20.25;17.75;;;;;23.83;53.37;99175.78;5008919;28;45454;-64
2022/08/30 04:21:31;;;;;;;;;16.25;16.00;;;;;23.81;53.17;99183.16;5004738;28;45564;-63
2022/08/30 04:23:59;;;;;;;;;18.50;17.75;;;;;23.79;53.12;99174.41;5005295;28;45515;-64
2022/08/30 04:26:24;;;;;;;;;16.00;16.00;;;;;23.80;53.30;99170.69;5006724;28;45315;-64
2022/08/30 04:28:53;;;;;;;;;17.00;17.00;;;;;23.78;53.61;99172.72;4990023;28;45356;-63
2022/08/30 04:31:19;;;;;;;;;15.25;15.00;;;;;23.76;53.02;99169.31;5006277;28;45596;-63
2022/08/30 04:33:44;;;;;;;;;17.00;15.33;;;;;23.74;53.34;99172.13;5011029;28;46380;-63
2022/08/30 04:36:12;;;;;;;;;16.00;16.00;;;;;23.74;52.90;99173.97;5011898;28;45555;-62
2022/08/30 04:38:39;;;;;;;;;13.25;13.25;;;;;23.74;53.38;99168.59;4994175;28;45506;-62
2022/08/30 04:41:14;;;;;;;;;18.00;17.67;;;;;23.72;53.29;99170.56;5006595;28;45477;-64
2022/08/30 04:43:39;;;;;;;;;18.67;16.00;;;;;23.71;53.51;99177.81;4981491;28;45541;-64
2022/08/30 04:46:07;;;;;;;;;18.25;17.25;;;;;23.71;53.16;99172.41;4973493;28;45456;-64
2022/08/30 04:48:32;;;;;;;;;15.25;15.25;;;;;23.68;53.46;99172.69;4970503;28;45242;-66
2022/08/30 04:50:58;;;;;;;;;17.00;15.75;;;;;23.67;53.53;99163.78;4963119;28;45658;-64
2022/08/30 04:53:23;;;;;;;;;16.25;15.25;;;;;23.66;53.82;99172.84;4967841;28;46578;-64
2022/08/30 04:55:48;;;;;;;;;16.75;15.00;;;;;23.64;53.63;99173.97;4958858;28;45352;-64
2022/08/30 04:58:14;;;;;;;;;19.00;17.00;;;;;23.63;53.76;99170.44;4974878;28;45438;-65
2022/08/30 05:00:42;;;;;;;;;17.00;16.50;;;;;23.65;53.63;99170.28;4971244;28;45610;-64
2022/08/30 05:03:07;;;;;;;;;17.75;16.75;;;;;23.64;54.15;99172.13;4973445;28;45455;-63
2022/08/30 05:05:39;;;;;;;;;13.25;13.25;;;;;23.64;53.78;99172.13;4961185;28;45352;-63
2022/08/30 05:08:08;;;;;;;;;19.00;15.50;;;;;23.66;53.76;99172.00;4966881;28;45526;-62
2022/08/30 05:10:36;;;;;;;;;15.25;15.25;;;;;23.66;53.46;99178.22;4970143;28;45476;-62
2022/08/30 05:13:02;;;;;;;;;18.75;16.25;;;;;23.69;52.75;99185.16;4968599;28;46658;-62
2022/08/30 05:15:28;;;;;;;;;16.75;16.50;;;;;23.67;52.85;99190.69;4965918;28;45416;-62
2022/08/30 05:17:53;;;;;;;;;17.00;15.33;;;;;23.69;52.77;99190.56;4970592;28;45437;-62
2022/08/30 05:20:19;;;;;;;;;14.00;14.00;;;;;23.70;53.33;99192.25;4973263;28;45598;-62
2022/08/30 05:22:48;;;;;;;;;19.75;18.00;;;;;23.72;52.63;99194.81;4971493;28;46420;-63
2022/08/30 05:25:19;;;;;;;;;14.00;13.00;;;;;23.71;52.62;99191.25;4974281;28;45467;-63
2022/08/30 05:27:45;;;;;;;;;18.25;14.50;;;;;23.67;53.05;99189.84;4962906;28;45419;-62
2022/08/30 05:30:12;;;;;;;;;15.00;15.00;;;;;23.65;53.16;99181.91;4961869;28;45521;-62
2022/08/30 05:32:38;;;;;;;;;17.50;17.50;;;;;23.65;53.25;99189.13;4976929;28;45502;-63
2022/08/30 05:35:05;;;;;;;;;15.50;15.00;;;;;23.66;52.98;99190.84;4975219;28;45446;-62
2022/08/30 05:37:31;;;;;;;;;16.00;16.00;;;;;23.66;53.20;99190.84;4974335;28;45427;-63
2022/08/30 05:39:56;;;;;;;;;16.50;16.00;;;;;23.67;53.48;99196.06;4971931;28;45650;-61
2022/08/30 05:42:21;;;;;;;;;16.50;15.00;;;;;23.68;53.34;99199.63;4968767;28;46374;-62
2022/08/30 05:44:51;;;;;;;;;17.00;16.50;;;;;23.68;53.16;99199.63;4991952;28;45532;-67
2022/08/30 05:47:17;;;;;;;;;17.00;16.25;;;;;23.69;53.33;99190.56;4985018;28;45522;-71
2022/08/30 05:49:42;;;;;;;;;16.00;16.00;;;;;23.70;53.31;99188.72;4982845;28;45427;-70
2022/08/30 05:52:07;;;;;;;;;17.50;15.50;;;;;23.71;53.41;99191.25;4991903;28;48500;-69
2022/08/30 05:54:33;;;;;;;;;17.00;14.75;;;;;23.72;53.37;99201.03;4981804;28;45443;-70
2022/08/30 05:56:58;;;;;;;;;14.75;14.75;;;;;23.74;53.08;99200.91;4989012;28;45332;-66
2022/08/30 05:59:24;;;;;;;;;15.00;15.00;;;;;23.78;53.46;99207.72;4993550;28;45399;-69
2022/08/30 06:01:49;;;;;;;;;16.25;14.25;;;;;23.83;53.72;99200.88;4991606;28;45810;-64
2022/08/30 06:04:15;;;;;;;;;18.50;15.75;;;;;23.87;53.60;99201.44;4995156;28;45586;-64
2022/08/30 06:06:43;;;;;;;;;14.00;13.00;;;;;23.89;53.44;99202.16;4994864;28;45455;-64
2022/08/30 06:09:10;;;;;;;;;18.00;15.75;;;;;23.90;52.99;99207.41;4994344;28;45564;-63
2022/08/30 06:11:36;;;;;;;;;14.50;13.25;;;;;23.94;53.52;99198.06;4995123;28;45438;-63
2022/08/30 06:14:03;;;;;;;;;14.00;14.00;;;;;23.99;53.05;99194.91;4995717;28;45406;-63
2022/08/30 06:16:28;;;;;;;;;17.50;16.75;;;;;24.04;52.72;99194.47;4995252;28;45371;-63
2022/08/30 06:18:56;;;;;;;;;18.00;17.25;;;;;24.10;52.57;99185.81;4995684;28;45442;-63
2022/08/30 06:21:29;;;;;;;;;21.00;18.00;;;;;24.13;52.15;99188.22;4984885;28;45685;-64
2022/08/30 06:23:56;;;;;;;;;19.00;16.25;;;;;24.18;52.65;99185.94;4992808;28;45422;-64
2022/08/30 06:26:22;;;;;;;;;17.00;16.75;;;;;24.21;52.19;99196.41;4994000;28;45323;-63
2022/08/30 06:28:48;;;;;;;;;16.25;15.25;;;;;24.23;52.01;99199.81;4994933;28;45352;-63
2022/08/30 06:31:15;;;;;;;;;20.50;15.50;;;;;24.23;51.88;99186.34;4994335;28;46472;-64
2022/08/30 06:33:41;;;;;;;;;17.00;14.25;;;;;24.24;51.88;99199.72;4992755;28;45431;-64
2022/08/30 06:36:10;;;;;;;;;16.00;15.50;;;;;24.26;51.73;99208.50;4992365;28;45501;-62
2022/08/30 06:38:36;;;;;;;;;15.50;14.25;;;;;24.27;51.63;99207.50;4995310;28;45344;-63
2022/08/30 06:41:07;;;;;;;;;16.25;15.75;;;;;24.28;51.31;99197.59;4994717;28;45370;-62
2022/08/30 06:43:33;;;;;;;;;16.00;16.00;;;;;24.28;51.28;99205.66;4990070;28;45403;-62
2022/08/30 06:46:07;;;;;;;;;18.25;15.75;;;;;24.28;51.53;99213.75;5013685;28;45526;-63
2022/08/30 06:48:32;;;;;;;;;21.75;20.25;;;;;24.25;51.44;99205.94;5014593;28;45510;-65
2022/08/30 06:50:58;;;;;;;;;21.25;17.25;;;;;24.25;51.32;99209.50;5012755;28;46072;-70
2022/08/30 06:53:24;;;;;;;;;15.25;15.25;;;;;24.28;51.48;99201.13;5013501;28;45476;-64
2022/08/30 06:56:03;;;;;;;;;17.75;16.75;;;;;24.31;51.22;99213.44;4998581;28;45481;-65
2022/08/30 06:58:31;;;;;;;;;19.00;16.25;;;;;24.32;51.33;99210.59;4995717;28;45486;-65
2022/08/30 07:00:57;;;;;;;;;19.00;16.00;;;;;24.32;51.36;99221.38;5003246;28;45488;-64
2022/08/30 07:03:26;;;;;;;;;14.25;14.25;;;;;24.32;51.33;99209.75;5006758;28;45485;-64
2022/08/30 07:05:52;;;;;;;;;22.75;19.25;;;;;24.30;51.12;99207.19;5005896;28;45494;-65
2022/08/30 07:08:17;;;;;;;;;19.25;17.50;;;;;24.29;51.67;99212.75;5008053;28;45652;-65
2022/08/30 07:10:43;;;;;;;;;16.00;15.50;;;;;24.27;51.79;99229.06;5013424;28;45934;-64
2022/08/30 07:13:09;;;;;;;;;19.25;18.50;;;;;24.21;51.52;99226.91;5013234;28;45767;-65
2022/08/30 07:15:35;;;;;;;;;17.00;16.00;;;;;24.14;51.54;99227.63;5012285;28;45666;-65
2022/08/30 07:20:45;;;;;;;;;19.50;15.75;;;;;23.97;52.25;99230.06;5008889;28;45654;-62
2022/08/30 07:23:11;;;;;;;;;15.25;15.25;;;;;23.92;51.58;99226.97;5000603;28;45503;-66
2022/08/30 07:25:38;;;;;;;;;18.75;16.25;;;;;23.91;52.25;99227.09;4990663;28;45536;-64
2022/08/30 07:28:05;;;;;;;;;17.25;17.25;;;;;23.91;52.14;99227.97;5001714;28;45511;-64
2022/08/30 07:30:31;;;;;;;;;18.75;17.75;;;;;23.92;52.07;99226.97;5009008;28;46443;-63
2022/08/30 07:32:57;;;;;;;;;20.00;18.75;;;;;23.92;51.72;99228.81;4991887;28;45442;-59
2022/08/30 07:35:22;;;;;;;;;16.00;13.75;;;;;23.94;52.11;99232.22;5012843;28;45296;-63
2022/08/30 07:37:48;;;;;;;;;15.75;15.50;;;;;23.94;52.11;99238.44;5003147;28;45480;-68
2022/08/30 07:40:13;;;;;;;;;18.50;17.25;;;;;23.96;51.92;99232.91;5013466;28;46459;-69
2022/08/30 07:42:39;;;;;;;;;16.00;16.00;;;;;23.99;51.90;99230.78;5006646;28;45353;-68
2022/08/30 07:45:07;;;;;;;;;13.50;12.75;;;;;24.02;51.20;99235.88;5013792;28;45467;-68
2022/08/30 07:47:32;;;;;;;;;15.75;15.75;;;;;24.11;51.47;99242.25;4997641;28;45543;-69
2022/08/30 07:49:59;;;;;;;;;15.00;13.75;;;;;24.16;51.83;99245.34;5003850;28;46288;-68
2022/08/30 07:52:26;;;;;;;;;22.75;16.75;;;;;24.18;51.75;99245.19;4997824;28;45499;-60
2022/08/30 07:54:52;;;;;;;;;17.50;16.25;;;;;24.20;52.14;99254.84;4999471;28;45662;-76
2022/08/30 07:57:18;;;;;;;;;16.75;13.75;;;;;24.21;52.40;99253.84;5011068;28;45511;-72
2022/08/30 07:59:43;;;;;;;;;17.50;17.00;;;;;24.21;53.42;99258.41;5011303;28;45501;-63
2022/08/30 08:02:08;;;;;;;;;19.25;17.75;;;;;24.22;53.58;99249.31;5010384;28;45419;-66
2022/08/30 08:04:34;;;;;;;;;16.75;14.50;;;;;24.24;53.00;99255.44;5008667;28;45390;-67
2022/08/30 08:07:00;;;;;;;;;16.25;15.25;;;;;24.28;53.56;99255.03;5014433;28;45564;-66
2022/08/30 08:09:25;;;;;;;;;15.00;14.00;;;;;24.34;53.51;99257.13;5007476;28;46189;-66
2022/08/30 08:11:51;;;;;;;;;16.75;14.75;;;;;24.43;53.12;99255.41;4992868;28;45460;-63
2022/08/30 08:14:17;;;;;;;;;16.00;16.00;;;;;24.53;52.69;99261.59;5002779;28;45435;-63
2022/08/30 08:16:43;;;;;;;;;19.25;17.25;;;;;24.63;52.57;99254.31;5010659;28;45486;-63
2022/08/30 08:19:10;;;;;;;;;18.25;16.00;;;;;24.72;52.66;99254.44;5004994;28;46472;-63
2022/08/30 08:21:35;;;;;;;;;14.25;14.25;;;;;24.80;52.16;99258.09;5001278;28;45445;-63
2022/08/30 08:24:01;;;;;;;;;14.25;14.25;;;;;24.91;50.88;99260.63;5000080;28;45317;-63
2022/08/30 08:26:27;;;;;;;;;18.00;17.00;;;;;25.00;50.31;99267.00;5005680;28;45457;-63
2022/08/30 08:28:52;;;;;;;;;13.50;13.25;;;;;25.12;49.80;99263.13;4999383;28;46782;-63
2022/08/30 08:31:23;;;;;;;;;3219.00;1241.50;;;;;25.25;49.57;99258.19;5007156;28;45408;-64
2022/08/30 08:33:49;;;;;;;;;1.00;0.00;;;;;25.39;48.83;99270.34;5002494;28;45430;-60
2022/08/30 08:36:15;;;;;;;;;25.50;19.75;;;;;25.49;48.17;99263.00;5006224;28;45429;-61
2022/08/30 08:38:40;;;;;;;;;19.25;16.00;;;;;25.57;48.16;99262.25;5008494;28;46398;-61
2022/08/30 08:41:21;;;;;;;;;17.75;17.75;;;;;25.60;48.09;99260.09;5012666;28;45314;-68
2022/08/30 08:43:47;;;;;;;;;20.25;16.75;;;;;25.66;47.81;99264.91;5003047;28;45446;-65
2022/08/30 08:46:29;;;;;;;;;13.25;12.00;;;;;25.75;47.56;99262.28;5011823;28;45368;-64
2022/08/30 08:49:00;;;;;;;;;18.50;16.00;;;;;25.79;47.74;99269.94;5002508;28;45560;-65
2022/08/30 08:54:37;;;;;;;;;16.00;14.50;;;;;25.97;47.70;99256.44;4994021;28;45457;-64
2022/08/30 08:57:03;;;;;;;;;16.75;15.75;;;;;26.05;47.96;99264.59;4990375;28;45407;-66
2022/08/30 08:59:28;;;;;;;;;14.75;13.50;;;;;26.12;47.82;99260.28;5002898;28;45965;-65
2022/08/30 09:01:57;;;;;;;;;16.50;16.50;;;;;26.20;47.51;99257.59;4997791;28;45519;-66
2022/08/30 09:04:29;;;;;;;;;20.50;18.00;;;;;26.25;47.44;99260.69;4996385;28;45429;-64
2022/08/30 09:07:02;;;;;;;;;18.75;17.75;;;;;26.33;47.70;99252.66;4997221;28;45504;-63
2022/08/30 09:09:34;;;;;;;;;15.50;15.50;;;;;26.42;46.99;99259.00;4997583;28;45490;-62
2022/08/30 09:11:59;;;;;;;;;538.17;464.83;;;;;26.52;47.11;99262.44;5003228;28;45716;-63
2022/08/30 09:14:31;;;;;;;;;16.25;16.25;;;;;26.64;46.27;99257.63;5004080;28;45503;-55
2022/08/30 09:16:57;;;;;;;;;19.25;18.75;;;;;26.71;45.83;99258.66;4998493;28;45502;-56
2022/08/30 09:19:36;;;;;;;;;17.00;16.75;;;;;26.77;45.43;99258.03;5000151;28;46237;-56
2022/08/30 09:22:11;;;;;;;;;19.75;19.00;;;;;26.82;44.83;99255.66;4999671;28;45489;-57
2022/08/30 09:24:42;;;;;;;;;15.75;15.00;;;;;26.88;45.06;99249.63;5008807;28;45394;-56
2022/08/30 09:27:14;;;;;;;;;18.50;18.00;;;;;26.95;45.25;99249.84;4997552;28;45475;-57
2022/08/30 09:29:53;;;;;;;;;16.50;14.00;;;;;26.99;44.48;99240.38;4994584;28;46495;-57
2022/08/30 09:32:28;;;;;;;;;18.25;16.25;;;;;27.06;44.41;99241.44;5006082;28;45514;-56
2022/08/30 09:34:54;;;;;;;;;17.25;16.75;;;;;27.12;44.03;99246.22;5009999;28;45442;-57
2022/08/30 09:37:30;;;;;;;;;19.00;16.00;;;;;27.20;44.18;99239.97;5006239;28;45312;-56
2022/08/30 09:39:57;;;;;;;;;16.50;15.00;;;;;27.27;43.52;99241.84;5010714;28;45441;-55
2022/08/30 09:42:25;;;;;;;;;15.00;14.75;;;;;27.33;43.36;99246.59;4994353;28;45494;-58
2022/08/30 09:45:09;;;;;;;;;17.00;17.00;;;;;27.36;44.01;99242.72;5002791;28;45476;-56
2022/08/30 09:47:38;;;;;;;;;16.50;14.25;;;;;27.45;43.34;99237.16;5004157;28;45419;-56
2022/08/30 09:50:19;;;;;;;;;13.50;13.50;;;;;27.57;42.93;99231.44;5002697;28;46699;-55
2022/08/30 09:53:14;;;;;;;;;17.50;17.25;;;;;27.72;42.75;99229.78;5008625;28;45354;-57
2022/08/30 09:56:03;;;;;;;;;3379.60;1849.80;;;;;27.81;42.37;99226.06;4993606;28;45443;-62
2022/08/30 09:59:01;;;;;;;;;34.67;29.33;;;;;27.93;42.16;99219.28;5010803;28;45342;-62
2022/08/30 10:01:31;;;;;;;;;32.67;26.00;;;;;27.96;41.53;99213.53;4995562;28;46391;-57
2022/08/30 10:03:56;;;;;;;;;19.25;18.75;;;;;27.96;41.92;99207.28;5004977;28;45357;-57
2022/08/30 10:06:44;;;;;;;;;25.00;20.50;;;;;27.93;41.78;99208.44;5004204;28;45538;-57
2022/08/30 10:09:39;;;;;;;;;18.50;17.50;;;;;27.96;41.80;99202.69;5007488;28;45356;-57
2022/08/30 10:12:18;;;;;;;;;15.50;15.50;;;;;28.03;41.61;99202.84;5002327;28;45915;-56
2022/08/30 10:15:06;;;;;;;;;21.25;18.50;;;;;28.10;41.77;99201.16;5006453;28;45448;-58
2022/08/30 10:18:16;;;;;;;;;18.50;17.75;;;;;28.19;41.13;99193.84;5009865;28;45494;-58
2022/08/30 10:21:00;;;;;;;;;17.25;16.75;;;;;28.20;41.01;99188.28;5008715;28;45462;-57
2022/08/30 10:23:35;;;;;;;;;15.25;15.25;;;;;28.23;40.68;99193.38;5003943;28;45695;-58
2022/08/30 10:26:11;;;;;;;;;13.50;13.50;;;;;28.29;40.09;99183.72;5014966;28;45530;-58
2022/08/30 10:28:45;;;;;;;;;16.50;16.00;;;;;28.28;40.01;99176.59;5003211;28;45425;-58
2022/08/30 10:31:25;;;;;;;;;12.50;12.50;;;;;28.26;40.28;99171.34;5005790;28;45503;-58
2022/08/30 10:33:57;;;;;;;;;15.00;13.75;;;;;28.29;40.72;99175.56;5009124;28;46364;-58
2022/08/30 10:36:32;;;;;;;;;14.00;14.00;;;;;28.32;40.18;99161.66;5011992;28;45352;-58
2022/08/30 10:38:58;;;;;;;;;15.25;14.75;;;;;28.35;39.94;99158.59;5007838;28;45411;-59
2022/08/30 10:41:31;;;;;;;;;16.50;15.00;;;;;28.43;39.71;99150.44;5011612;28;45597;-58
2022/08/30 10:44:28;;;;;;;;;16.75;15.00;;;;;28.51;40.10;99158.53;5009761;28;45560;-59
2022/08/30 10:47:17;;;;;;;;;15.00;13.50;;;;;28.62;39.99;99143.75;5009796;28;45509;-58
2022/08/30 10:49:48;;;;;;;;;15.25;13.00;;;;;28.74;39.32;99136.91;5010036;28;45376;-56
2022/08/30 10:52:33;;;;;;;;;18.25;13.25;;;;;28.83;40.05;99135.88;5004332;28;45562;-62
2022/08/30 10:55:06;;;;;;;;;10.00;8.50;;;;;28.99;39.37;99135.78;5004212;28;47435;-58
2022/08/30 10:57:31;;;;;;;;;13.50;11.50;;;;;29.11;39.23;99137.09;4997129;28;45816;-59
2022/08/30 11:00:01;;;;;;;;;12.00;12.00;;;;;29.25;39.67;99137.34;5001920;28;45517;-58
2022/08/30 11:02:51;;;;;;;;;12.25;12.25;;;;;29.41;39.66;99140.81;5000276;28;45390;-58
2022/08/30 11:05:28;;;;;;;;;11.00;10.75;;;;;29.59;40.39;99145.09;5001945;28;46428;-57
2022/08/30 11:08:15;;;;;;;;;9.50;9.50;;;;;29.72;41.00;99151.59;5003635;28;45541;-57
2022/08/30 11:10:59;;;;;;;;;9.50;9.50;;;;;29.80;40.73;99139.81;4998184;28;45468;-58
2022/08/30 11:13:30;;;;;;;;;9.00;8.00;;;;;29.88;41.39;99138.88;4999752;28;45421;-58
2022/08/30 11:16:05;;;;;;;;;10.50;8.00;;;;;29.99;41.42;99135.78;4996922;28;45528;-60
2022/08/30 11:18:44;;;;;;;;;12.75;8.75;;;;;30.13;40.75;99126.78;5000371;28;45450;-61
2022/08/30 11:21:20;;;;;;;;;5.25;5.25;;;;;30.17;40.22;99133.50;5004901;28;45562;-59
2022/08/30 11:24:01;;;;;;;;;7.25;7.25;;;;;30.10;39.96;99130.72;4999869;28;45337;-58
2022/08/30 11:26:48;;;;;;;;;6.75;6.00;;;;;30.07;40.18;99139.25;5011035;28;46571;-59
2022/08/30 11:29:29;;;;;;;;;6.20;6.20;;;;;30.09;40.04;99123.59;5008233;28;45441;-59
2022/08/30 11:32:19;;;;;;;;;6.50;5.75;;;;;30.06;39.67;99117.66;5007254;28;45359;-59